Time;durP1;ratioP1;P1;durP2;ratioP2;P2;SDS_P1;SDS_P2;PMS_P1;PMS_P2;Temp;Humidity;BMP_temperature;BMP_pressure;BME280_temperature;BME280_humidity;BME280_pressure;Samples;Min_cycle;Max_cycle;Signal;HPM_P1;HPM_P2
2023/05/11 00:01:14;;;;;;;0.93;0.93;;;;;;;20.47;57.92;97244.44;4955094;28;20766;-31
2023/05/11 00:03:41;;;;;;;1.23;1.13;;;;;;;20.46;58.29;97241.00;4954379;28;20197;-32
2023/05/11 00:06:08;;;;;;;1.23;1.20;;;;;;;20.46;57.91;97240.16;4954172;28;20216;-31
2023/05/11 00:08:34;;;;;;;1.10;1.10;;;;;;;20.47;58.00;97244.44;4954937;28;20212;-31
2023/05/11 00:11:01;;;;;;;1.20;1.10;;;;;;;20.46;57.56;97240.16;4954925;28;20197;-31
2023/05/11 00:13:27;;;;;;;1.17;1.07;;;;;;;20.45;57.89;97235.84;4955289;28;20231;-32
2023/05/11 00:15:54;;;;;;;1.00;1.00;;;;;;;20.45;58.21;97233.31;4953299;28;20204;-30
2023/05/11 00:18:21;;;;;;;1.20;1.10;;;;;;;20.18;57.86;97184.91;4953010;29;20731;-32
2023/05/11 00:20:47;;;;;;;0.90;0.90;;;;;;;20.45;57.67;97235.84;4955429;28;20311;-32
2023/05/11 00:23:14;;;;;;;0.90;0.90;;;;;;;20.45;57.83;97233.31;4955325;28;20295;-32
2023/05/11 00:25:40;;;;;;;0.90;0.90;;;;;;;20.44;57.81;97226.47;4954508;29;20216;-31
2023/05/11 00:28:07;;;;;;;0.93;0.93;;;;;;;20.45;57.89;97230.75;4953483;28;20197;-31
2023/05/11 00:30:33;;;;;;;1.00;1.00;;;;;;;20.43;57.91;97225.59;4954082;29;20581;-31
2023/05/11 00:33:00;;;;;;;1.10;1.10;;;;;;;20.42;57.70;97220.44;4947826;28;20232;-32
2023/05/11 00:35:27;;;;;;;1.10;1.00;;;;;;;20.42;58.23;97220.44;4955468;28;20316;-31
2023/05/11 00:37:53;;;;;;;1.00;1.00;;;;;;;20.43;57.81;97225.59;4954323;29;20196;-31
2023/05/11 00:40:20;;;;;;;1.10;1.10;;;;;;;20.45;57.88;97220.53;4955498;28;20220;-32
2023/05/11 00:42:46;;;;;;;2.40;1.00;;;;;;;20.47;57.91;97227.44;4954853;28;20204;-32
2023/05/11 00:45:13;;;;;;;0.80;0.80;;;;;;;20.50;57.85;97221.53;4955385;28;20315;-32
2023/05/11 00:47:40;;;;;;;1.23;1.20;;;;;;;20.51;58.01;97215.59;4955400;28;20236;-31
2023/05/11 00:50:07;;;;;;;0.90;0.90;;;;;;;20.50;57.82;97212.22;4950451;29;20207;-31
2023/05/11 00:52:33;;;;;;;1.03;1.03;;;;;;;20.50;57.88;97212.22;4953940;29;20200;-31
2023/05/11 00:55:00;;;;;;;1.10;1.10;;;;;;;20.49;57.86;97200.25;4954392;28;20319;-32
2023/05/11 00:57:27;;;;;;;1.07;1.07;;;;;;;20.49;58.42;97201.97;4954899;28;20267;-32
2023/05/11 00:59:53;;;;;;;0.93;0.93;;;;;;;20.49;57.86;97209.63;4953324;28;20200;-32
2023/05/11 01:02:20;;;;;;;1.10;1.10;;;;;;;20.49;58.21;97207.06;4954615;28;20232;-31
2023/05/11 01:04:46;;;;;;;1.23;1.13;;;;;;;20.47;57.79;97208.69;4952622;29;20618;-32
2023/05/11 01:07:31;;;;;;;1.10;1.10;;;;;;;20.46;57.91;97207.81;4953899;28;20204;-31
2023/05/11 01:10:49;;;;;;;1.00;1.00;;;;;;;20.47;58.07;97206.16;4953564;28;20679;-31
2023/05/11 01:13:36;;;;;;;1.03;1.03;;;;;;;20.45;58.00;97206.09;4942872;29;20207;-32
2023/05/11 01:16:07;;;;;;;1.00;1.00;;;;;;;20.44;57.98;97204.38;4953434;29;20228;-32
2023/05/11 01:18:49;;;;;;;0.93;0.93;;;;;;;20.44;58.09;97199.28;4953610;29;20204;-32
2023/05/11 01:21:16;;;;;;;1.07;1.07;;;;;;;20.43;58.00;97200.06;4953340;29;20252;-32
2023/05/11 01:24:01;;;;;;;1.03;1.03;;;;;;;20.44;58.10;97211.16;4953308;28;20210;-30
2023/05/11 01:26:31;;;;;;;0.90;0.90;;;;;;;20.43;58.07;97214.53;4954585;28;20220;-32
2023/05/11 01:29:09;;;;;;;0.93;0.93;;;;;;;20.39;58.11;97203.38;4954782;28;20201;-31
2023/05/11 01:31:36;;;;;;;1.10;1.10;;;;;;;20.16;57.68;97161.00;4953986;28;20587;-32
2023/05/11 01:34:03;;;;;;;1.17;1.17;;;;;;;20.38;57.97;97201.66;4937345;29;20220;-32
2023/05/11 01:36:35;;;;;;;1.17;1.07;;;;;;;20.42;58.17;97210.25;4936740;29;20208;-32
2023/05/11 01:39:03;;;;;;;1.00;1.00;;;;;;;20.38;58.01;97203.34;4952643;29;20279;-32
2023/05/11 01:41:30;;;;;;;1.00;1.00;;;;;;;20.40;58.23;97205.09;4951982;29;20303;-31
2023/05/11 01:43:58;;;;;;;1.03;1.03;;;;;;;20.42;58.11;97212.78;4937585;29;20220;-32
2023/05/11 01:46:26;;;;;;;1.30;1.20;;;;;;;20.43;58.02;97206.88;4954227;28;20215;-31
2023/05/11 01:48:54;;;;;;;1.00;1.00;;;;;;;20.46;57.79;97207.81;4953321;28;20255;-30
2023/05/11 01:51:22;;;;;;;1.00;1.00;;;;;;;20.44;57.97;97201.81;4952852;29;20198;-32
2023/05/11 01:53:49;;;;;;;1.10;1.10;;;;;;;20.48;58.32;97211.28;4953526;29;20225;-36
2023/05/11 01:56:15;;;;;;;1.00;1.00;;;;;;;20.49;57.89;97212.16;4952425;29;20566;-30
2023/05/11 01:58:42;;;;;;;1.00;1.00;;;;;;;20.49;57.66;97207.06;4953188;28;20210;-31
2023/05/11 02:01:08;;;;;;;1.10;1.10;;;;;;;20.49;57.75;97207.06;4952854;29;20226;-32
2023/05/11 02:03:35;;;;;;;1.00;1.00;;;;;;;20.48;58.02;97207.88;4952793;28;20339;-31
2023/05/11 02:06:04;;;;;;;1.13;1.03;;;;;;;20.48;57.99;97207.88;4952538;29;20207;-31
2023/05/11 02:08:30;;;;;;;1.10;1.10;;;;;;;20.42;57.91;97200.03;4953956;28;20730;-32
2023/05/11 02:10:57;;;;;;;1.00;1.00;;;;;;;20.43;57.92;97204.34;4937215;29;20216;-32
2023/05/11 02:13:23;;;;;;;1.03;1.03;;;;;;;20.45;57.84;97211.19;4952732;29;20206;-33
2023/05/11 02:15:50;;;;;;;1.00;1.00;;;;;;;20.33;57.95;97193.00;4932728;29;20204;-28
2023/05/11 02:18:17;;;;;;;1.00;1.00;;;;;;;20.41;58.04;97213.63;4952428;29;20232;-31
2023/05/11 02:20:44;;;;;;;0.90;0.90;;;;;;;20.44;58.23;97218.81;4944581;29;20228;-31
2023/05/11 02:23:11;;;;;;;0.97;0.97;;;;;;;20.42;58.04;97206.00;4952385;28;20263;-31
2023/05/11 02:25:38;;;;;;;1.20;1.10;;;;;;;20.42;57.82;97213.66;4953941;28;20263;-31
2023/05/11 02:28:05;;;;;;;0.90;0.90;;;;;;;20.43;58.20;97212.84;4952830;28;20228;-32
2023/05/11 02:30:31;;;;;;;0.93;0.93;;;;;;;20.41;58.13;97206.84;4952339;29;20675;-32
2023/05/11 02:32:58;;;;;;;1.03;1.03;;;;;;;20.42;58.03;97217.91;4949543;29;20211;-31
2023/05/11 02:35:29;;;;;;;1.10;1.00;;;;;;;20.41;58.24;97208.53;4936509;29;20228;-32
2023/05/11 02:37:57;;;;;;;1.03;1.03;;;;;;;20.41;58.19;97211.06;4936882;29;20203;-31
2023/05/11 02:40:31;;;;;;;1.20;1.10;;;;;;;20.39;58.19;97211.03;4952173;29;20762;-32
2023/05/11 02:43:07;;;;;;;1.00;1.00;;;;;;;20.35;58.11;97200.69;4952862;29;20581;-32
2023/05/11 02:45:34;;;;;;;1.10;1.10;;;;;;;20.37;58.23;97205.00;4952514;28;20298;-31
2023/05/11 02:48:04;;;;;;;1.00;1.00;;;;;;;20.34;58.07;97187.06;4952331;28;20201;-32
2023/05/11 02:50:31;;;;;;;1.10;1.10;;;;;;;20.16;58.12;97152.50;4937085;29;20710;-32
2023/05/11 02:52:58;;;;;;;1.20;1.10;;;;;;;20.39;58.02;97188.06;4933259;29;20205;-31
2023/05/11 02:55:25;;;;;;;0.90;0.90;;;;;;;20.46;58.18;97194.22;4934537;29;20263;-32
2023/05/11 02:57:51;;;;;;;1.07;1.07;;;;;;;20.47;57.77;97201.91;4954050;28;20247;-32
2023/05/11 03:00:18;;;;;;;1.00;1.00;;;;;;;20.48;57.90;97195.09;4952201;29;20743;-32
2023/05/11 03:02:45;;;;;;;1.00;1.00;;;;;;;20.49;57.86;97204.50;4951414;28;20256;-32
2023/05/11 03:05:12;;;;;;;1.03;1.00;;;;;;;20.47;58.08;97194.25;4953783;28;20323;-32
2023/05/11 03:07:38;;;;;;;1.13;1.10;;;;;;;20.47;57.56;97194.25;4956199;28;20205;-32
2023/05/11 03:10:07;;;;;;;1.00;1.00;;;;;;;20.44;57.79;97190.75;4940153;29;20299;-32
2023/05/11 03:12:34;;;;;;;1.00;1.00;;;;;;;20.46;58.37;97187.41;4955219;29;20256;-31
2023/05/11 03:15:01;;;;;;;1.00;1.00;;;;;;;20.42;58.03;97180.50;4955254;29;20224;-31
2023/05/11 03:17:27;;;;;;;1.17;1.10;;;;;;;20.45;58.01;97193.34;4948313;29;20737;-31
2023/05/11 03:19:54;;;;;;;1.10;1.10;;;;;;;20.45;57.95;97190.78;4956378;28;20292;-31
2023/05/11 03:22:21;;;;;;;0.90;0.90;;;;;;;20.44;57.96;97183.09;4937328;29;20307;-31
2023/05/11 03:24:48;;;;;;;0.90;0.90;;;;;;;20.43;57.91;97179.66;4951851;29;20618;-31
2023/05/11 03:27:15;;;;;;;0.93;0.93;;;;;;;20.44;58.02;97172.88;4952740;29;20577;-31
2023/05/11 03:29:42;;;;;;;0.90;0.90;;;;;;;20.43;57.95;97173.72;4938965;29;20229;-31
2023/05/11 03:32:09;;;;;;;1.00;1.00;;;;;;;20.17;57.95;97126.16;4955928;28;20758;-31
2023/05/11 03:34:35;;;;;;;1.10;1.10;;;;;;;20.43;58.52;97168.59;4955377;28;20291;-32
2023/05/11 03:37:03;;;;;;;1.10;1.10;;;;;;;20.43;58.04;97164.34;4955140;29;20287;-31
2023/05/11 03:39:30;;;;;;;1.00;1.00;;;;;;;20.43;57.80;97161.78;4955241;29;20204;-31
2023/05/11 03:41:56;;;;;;;1.17;1.13;;;;;;;20.42;57.90;97166.84;4955594;29;20243;-31
2023/05/11 03:44:23;;;;;;;1.10;1.10;;;;;;;20.42;57.92;97154.97;4954862;29;20231;-32
2023/05/11 03:46:49;;;;;;;1.10;1.10;;;;;;;20.41;57.92;97155.81;4954193;28;20283;-30
2023/05/11 03:49:16;;;;;;;0.90;0.90;;;;;;;20.42;58.17;97157.53;4952703;29;20629;-30
2023/05/11 03:51:43;;;;;;;1.00;1.00;;;;;;;20.42;58.11;97160.06;4931147;29;20679;-31
2023/05/11 03:54:10;;;;;;;1.00;1.00;;;;;;;20.45;58.37;97156.72;4933157;29;20225;-32
2023/05/11 03:56:37;;;;;;;1.10;1.00;;;;;;;20.46;58.01;97161.03;4954010;29;20208;-32
2023/05/11 03:59:03;;;;;;;1.20;1.10;;;;;;;20.49;58.03;97161.97;4950031;29;20210;-31
2023/05/11 04:01:30;;;;;;;0.93;0.93;;;;;;;20.47;58.25;97155.97;4955472;29;20224;-32
2023/05/11 04:03:57;;;;;;;1.57;1.10;;;;;;;20.52;58.00;97161.19;4938105;29;20604;-31
2023/05/11 04:06:24;;;;;;;1.23;1.10;;;;;;;20.52;57.84;97168.84;4955266;28;20243;-31
2023/05/11 04:08:50;;;;;;;1.10;1.10;;;;;;;20.53;58.58;97156.13;4955072;28;20204;-32
2023/05/11 04:11:17;;;;;;;1.00;1.00;;;;;;;20.51;57.75;97155.22;4956323;28;20203;-32
2023/05/11 04:13:44;;;;;;;1.10;1.10;;;;;;;20.45;58.08;97144.84;4948080;29;20211;-32
2023/05/11 04:16:11;;;;;;;1.20;1.10;;;;;;;20.51;57.86;97157.78;4953557;28;20737;-31
2023/05/11 04:18:37;;;;;;;1.40;1.30;;;;;;;20.50;57.40;97156.06;4954383;28;20239;-30
2023/05/11 04:21:05;;;;;;;2.50;1.10;;;;;;;20.47;58.03;97145.75;4955667;28;20220;-32
2023/05/11 04:23:31;;;;;;;1.00;1.00;;;;;;;20.46;58.13;97155.94;4955240;28;20288;-31
2023/05/11 04:25:58;;;;;;;1.10;1.10;;;;;;;20.49;58.21;97156.00;4950808;28;20201;-31
2023/05/11 04:28:26;;;;;;;1.00;1.00;;;;;;;20.48;58.03;97164.47;4953470;29;20239;-31
2023/05/11 04:30:54;;;;;;;1.00;0.90;;;;;;;20.47;57.98;97160.19;4950394;28;20247;-31
2023/05/11 04:33:20;;;;;;;1.20;1.10;;;;;;;20.47;57.91;97153.41;4954610;28;20641;-31
2023/05/11 04:35:50;;;;;;;0.97;0.97;;;;;;;20.20;57.98;97116.94;4955866;28;20271;-31
2023/05/11 04:38:17;;;;;;;1.10;1.10;;;;;;;20.46;57.92;97156.78;4955275;28;20258;-31
2023/05/11 04:40:44;;;;;;;1.03;1.03;;;;;;;20.47;58.08;97157.66;4951952;28;20204;-30
2023/05/11 04:43:11;;;;;;;1.07;1.07;;;;;;;20.47;58.23;97162.75;4954552;28;20758;-32
2023/05/11 04:45:37;;;;;;;2.20;1.00;;;;;;;20.47;57.96;97160.19;4952582;29;20609;-31
2023/05/11 04:48:05;;;;;;;1.00;1.00;;;;;;;20.47;58.20;97160.19;4955272;28;20196;-31
2023/05/11 04:50:32;;;;;;;1.30;1.20;;;;;;;20.46;58.10;97159.31;4955322;28;20222;-31
2023/05/11 04:52:58;;;;;;;1.10;1.10;;;;;;;20.46;58.21;97158.47;4955134;28;20562;-31
2023/05/11 04:55:25;;;;;;;1.30;1.20;;;;;;;20.47;58.08;97162.75;4953964;29;20726;-31
2023/05/11 04:57:51;;;;;;;1.03;0.93;;;;;;;20.48;57.67;97160.25;4950861;29;20201;-32
2023/05/11 05:00:18;;;;;;;3.70;1.10;;;;;;;20.49;58.06;97156.84;4954043;28;20275;-31
2023/05/11 05:02:46;;;;;;;1.20;1.10;;;;;;;20.52;58.30;97161.19;4955163;28;20228;-32
2023/05/11 05:05:12;;;;;;;1.03;1.03;;;;;;;20.40;57.44;97136.19;4955600;28;20582;-31
2023/05/11 05:07:39;;;;;;;1.00;1.00;;;;;;;20.55;58.14;97162.16;4954698;28;20291;-32
2023/05/11 05:10:08;;;;;;;0.90;0.90;;;;;;;20.56;57.95;97158.78;4955274;28;20287;-31
2023/05/11 05:12:35;;;;;;;1.00;1.00;;;;;;;20.55;57.85;97162.16;4954892;28;20566;-32
2023/05/11 05:15:02;;;;;;;1.40;1.07;;;;;;;20.55;58.00;97159.59;4954778;28;20303;-32
2023/05/11 05:17:29;;;;;;;0.97;0.97;;;;;;;20.55;57.30;97167.25;4954807;28;20204;-32
2023/05/11 05:19:56;;;;;;;1.03;1.03;;;;;;;20.54;57.87;97170.63;4955219;28;20389;-32
2023/05/11 05:22:24;;;;;;;1.00;1.00;;;;;;;20.54;57.87;97162.13;4951106;29;20228;-31
2023/05/11 05:24:50;;;;;;;1.13;1.10;;;;;;;20.52;58.18;97161.19;4953183;29;20220;-31
2023/05/11 05:27:17;;;;;;;0.93;0.93;;;;;;;20.51;57.79;97162.88;4953521;29;20725;-31
2023/05/11 05:29:43;;;;;;;1.10;1.10;;;;;;;20.50;57.86;97166.25;4953849;28;20200;-31
2023/05/11 05:32:10;;;;;;;1.23;1.20;;;;;;;20.50;57.96;97166.25;4954811;28;20557;-32
2023/05/11 05:34:36;;;;;;;1.10;1.10;;;;;;;20.50;58.20;97168.81;4954749;28;20228;-32
2023/05/11 05:37:03;;;;;;;1.33;1.13;;;;;;;20.48;58.28;97165.34;4954159;28;20235;-31
2023/05/11 05:39:29;;;;;;;0.90;0.90;;;;;;;20.48;57.91;97173.00;4954501;28;20302;-31
2023/05/11 05:41:56;;;;;;;2.00;1.10;;;;;;;20.48;58.03;97177.22;4954688;28;20223;-31
2023/05/11 05:44:22;;;;;;;1.03;1.03;;;;;;;20.47;57.95;97178.94;4954487;28;20230;-32
2023/05/11 05:46:49;;;;;;;1.00;1.00;;;;;;;20.45;58.12;97180.56;4954678;28;20208;-32
2023/05/11 05:49:16;;;;;;;1.10;1.00;;;;;;;20.47;58.07;97175.50;4954243;28;20201;-32
2023/05/11 05:51:42;;;;;;;1.30;1.20;;;;;;;20.38;58.45;97163.38;4954219;28;20633;-31
2023/05/11 05:54:10;;;;;;;1.20;1.10;;;;;;;20.46;58.40;97187.41;4952484;29;20228;-36
2023/05/11 05:56:36;;;;;;;0.90;0.90;;;;;;;20.43;58.10;97184.75;4953866;28;20229;-31
2023/05/11 05:59:03;;;;;;;1.03;1.03;;;;;;;20.43;57.81;97172.00;4954099;28;20208;-32
2023/05/11 06:01:30;;;;;;;1.00;1.00;;;;;;;20.44;57.82;97175.44;4953931;28;20216;-31
2023/05/11 06:03:56;;;;;;;1.30;1.20;;;;;;;20.46;58.53;97186.56;4954080;28;20259;-31
2023/05/11 06:06:23;;;;;;;1.20;1.10;;;;;;;20.31;58.07;97153.78;4954029;28;20197;-31
2023/05/11 06:08:50;;;;;;;1.13;1.10;;;;;;;20.50;57.62;97175.59;4953903;28;20208;-32
2023/05/11 06:11:17;;;;;;;1.17;1.07;;;;;;;20.51;57.96;97173.09;4953967;28;20212;-32
2023/05/11 06:13:43;;;;;;;1.30;1.20;;;;;;;20.51;57.82;97178.19;4954125;28;20201;-32
2023/05/11 06:16:10;;;;;;;1.40;1.30;;;;;;;20.52;57.63;97174.81;4954023;28;20207;-31
2023/05/11 06:18:37;;;;;;;1.50;1.40;;;;;;;20.51;58.18;97177.31;4953663;28;20291;-31
2023/05/11 06:21:03;;;;;;;1.53;1.43;;;;;;;20.51;57.68;97182.41;4953721;28;20202;-31
2023/05/11 06:23:30;;;;;;;1.30;1.20;;;;;;;20.50;58.05;97181.59;4953911;28;20200;-31
2023/05/11 06:25:56;;;;;;;1.50;1.40;;;;;;;20.50;57.75;97185.81;4953424;28;20207;-31
2023/05/11 06:28:23;;;;;;;1.43;1.33;;;;;;;20.49;57.92;97184.09;4954337;28;20304;-32
2023/05/11 06:30:50;;;;;;;3.80;1.50;;;;;;;20.48;57.60;97183.22;4953885;28;20204;-31
2023/05/11 06:33:16;;;;;;;1.40;1.30;;;;;;;20.47;58.03;97194.25;4953821;28;20332;-31
2023/05/11 06:35:43;;;;;;;3.37;3.00;;;;;;;20.46;58.51;97187.41;4953445;28;20216;-32
2023/05/11 06:38:09;;;;;;;4.07;3.27;;;;;;;20.46;58.87;97177.19;4953610;28;20691;-32
2023/05/11 06:40:36;;;;;;;2.93;2.63;;;;;;;20.44;58.89;97183.09;4953835;28;20244;-31
2023/05/11 06:43:02;;;;;;;3.00;2.63;;;;;;;20.43;58.62;97184.75;4957622;28;20330;-32
2023/05/11 06:45:29;;;;;;;2.00;1.90;;;;;;;20.44;58.43;97186.50;4957359;28;20239;-31
2023/05/11 06:47:56;;;;;;;4.53;1.90;;;;;;;20.44;58.71;97190.75;4957015;29;20201;-31
2023/05/11 06:50:23;;;;;;;3.50;2.00;;;;;;;20.42;57.96;97185.59;4957447;28;20263;-31
2023/05/11 06:52:53;;;;;;;2.30;2.10;;;;;;;20.43;58.41;97187.31;4957324;28;20232;-32
2023/05/11 06:55:20;;;;;;;2.30;2.10;;;;;;;20.43;58.51;97183.91;4957396;28;20224;-31
2023/05/11 06:57:46;;;;;;;2.13;1.67;;;;;;;20.43;57.90;97177.09;4957419;28;20451;-32
2023/05/11 07:00:13;;;;;;;2.00;1.77;;;;;;;20.41;58.14;97186.44;4957367;28;20235;-30
2023/05/11 07:02:40;;;;;;;2.17;2.00;;;;;;;20.22;58.30;97139.94;4956787;28;20216;-32
2023/05/11 07:05:06;;;;;;;2.90;1.80;;;;;;;20.42;58.29;97184.72;4957536;28;20308;-32
2023/05/11 07:07:33;;;;;;;2.53;2.03;;;;;;;20.42;58.18;97182.16;4957420;28;20206;-30
2023/05/11 07:10:00;;;;;;;2.27;1.67;;;;;;;20.45;58.25;97179.69;4957298;28;20236;-32
2023/05/11 07:12:26;;;;;;;2.00;1.80;;;;;;;20.45;58.01;97175.47;4957483;28;20619;-32
2023/05/11 07:14:53;;;;;;;1.67;1.57;;;;;;;20.49;58.13;97177.28;4957436;28;20574;-32
2023/05/11 07:17:19;;;;;;;1.70;1.60;;;;;;;20.50;57.99;97176.47;4956678;28;20207;-32
2023/05/11 07:19:46;;;;;;;1.70;1.60;;;;;;;20.50;58.14;97179.03;4956609;28;20208;-31
2023/05/11 07:22:13;;;;;;;2.07;1.83;;;;;;;20.50;57.96;97175.59;4957165;28;20224;-32
2023/05/11 07:24:41;;;;;;;1.80;1.70;;;;;;;20.50;57.70;97175.59;4955772;29;20251;-31
2023/05/11 07:27:07;;;;;;;2.33;1.70;;;;;;;20.49;58.23;97181.53;4956784;28;20236;-31
2023/05/11 07:29:34;;;;;;;1.73;1.63;;;;;;;20.19;57.98;97127.09;4957004;28;20583;-32
2023/05/11 07:32:01;;;;;;;1.70;1.60;;;;;;;20.47;57.85;97173.84;4954691;29;20255;-30
2023/05/11 07:34:27;;;;;;;1.77;1.67;;;;;;;20.47;57.94;97171.28;4956910;28;20748;-31
2023/05/11 07:36:54;;;;;;;1.87;1.77;;;;;;;20.46;58.01;97174.63;4956765;28;20300;-31
2023/05/11 07:39:20;;;;;;;1.70;1.60;;;;;;;20.45;57.95;97178.03;4956851;28;20209;-31
2023/05/11 07:41:47;;;;;;;1.57;1.47;;;;;;;20.44;58.14;97173.75;4956516;28;20234;-32
2023/05/11 07:44:14;;;;;;;1.80;1.70;;;;;;;20.47;58.32;97178.06;4956382;28;20227;-32
2023/05/11 07:46:41;;;;;;;2.03;1.70;;;;;;;20.44;57.88;97168.66;4956340;28;20630;-32
2023/05/11 07:49:09;;;;;;;1.73;1.60;;;;;;;20.44;58.07;97186.50;4956605;28;20208;-31
2023/05/11 07:51:48;;;;;;;1.60;1.50;;;;;;;20.44;58.11;97185.63;4956684;28;20667;-31
2023/05/11 07:54:15;;;;;;;2.20;1.50;;;;;;;20.41;58.17;97185.56;4919644;29;20650;-31
2023/05/11 07:56:43;;;;;;;1.83;1.73;;;;;;;20.44;58.20;97175.44;4953962;29;20204;-32
2023/05/11 07:59:09;;;;;;;2.30;1.67;;;;;;;20.44;58.07;97177.97;4956310;28;20299;-32
2023/05/11 08:01:36;;;;;;;1.60;1.50;;;;;;;20.42;58.39;97180.50;4956508;28;20232;-29
2023/05/11 08:04:03;;;;;;;1.87;1.63;;;;;;;20.42;58.20;97179.63;4952163;29;20251;-31
2023/05/11 08:06:30;;;;;;;1.50;1.40;;;;;;;20.42;58.33;97180.50;4956107;28;20751;-31
2023/05/11 08:08:56;;;;;;;1.60;1.50;;;;;;;20.44;57.88;97185.63;4956029;28;20355;-31
2023/05/11 08:11:23;;;;;;;1.53;1.43;;;;;;;20.45;58.09;97182.25;4955946;28;20208;-31
2023/05/11 08:13:49;;;;;;;1.50;1.40;;;;;;;20.48;57.94;97179.78;4950192;28;20225;-32
2023/05/11 08:16:17;;;;;;;1.60;1.50;;;;;;;20.50;57.93;97178.16;4956192;28;20232;-31
2023/05/11 08:18:44;;;;;;;1.67;1.57;;;;;;;20.51;58.21;97180.75;4956051;28;20211;-31
2023/05/11 08:21:10;;;;;;;1.60;1.50;;;;;;;20.51;57.82;97182.41;4956379;28;20204;-31
2023/05/11 08:23:37;;;;;;;2.30;1.97;;;;;;;20.33;58.06;97152.16;4955184;28;20220;-32
2023/05/11 08:26:04;;;;;;;3.70;1.73;;;;;;;20.49;58.72;97174.72;4947691;29;20618;-31
2023/05/11 08:28:30;;;;;;;1.67;1.57;;;;;;;20.50;58.37;97184.13;4956057;28;20287;-31
2023/05/11 08:30:57;;;;;;;2.60;1.80;;;;;;;20.35;58.19;97155.63;4955674;28;20247;-32
2023/05/11 08:33:24;;;;;;;2.00;1.50;;;;;;;20.48;58.24;97179.78;4954582;29;20204;-32
2023/05/11 08:36:04;;;;;;;1.50;1.40;;;;;;;20.47;58.20;97176.38;4947750;29;20231;-30
2023/05/11 08:38:32;;;;;;;9.00;1.60;;;;;;;20.47;58.25;97188.28;4955194;28;20718;-31
2023/05/11 08:41:00;;;;;;;1.40;1.30;;;;;;;20.45;58.17;97188.22;4955587;28;20212;-31
2023/05/11 08:43:26;;;;;;;1.33;1.23;;;;;;;20.46;58.07;97186.56;4938420;29;20299;-31
2023/05/11 08:45:55;;;;;;;1.70;1.60;;;;;;;20.40;58.22;97179.56;4953979;29;20279;-28
2023/05/11 08:48:22;;;;;;;1.37;1.30;;;;;;;20.44;57.93;97188.19;4954188;29;20244;-32
2023/05/11 08:50:49;;;;;;;1.50;1.40;;;;;;;20.44;58.13;97188.19;4954020;29;20208;-31
2023/05/11 08:53:16;;;;;;;1.57;1.47;;;;;;;20.43;58.34;97200.06;4934847;29;20201;-31
2023/05/11 08:55:42;;;;;;;1.50;1.40;;;;;;;20.43;58.16;97186.47;4951608;29;20334;-32
2023/05/11 08:58:09;;;;;;;1.60;1.50;;;;;;;20.42;58.16;97185.59;4954614;28;21225;-31
2023/05/11 09:00:35;;;;;;;3.23;1.50;;;;;;;20.42;58.42;97183.03;4953872;29;20647;-31
2023/05/11 09:03:02;;;;;;;1.70;1.60;;;;;;;20.43;58.59;97187.31;4954056;29;20221;-32
2023/05/11 09:05:29;;;;;;;1.30;1.30;;;;;;;20.42;58.24;97183.03;4953466;28;20239;-33
2023/05/11 09:08:03;;;;;;;2.73;1.70;;;;;;;20.41;58.19;97183.88;4954621;28;20200;-31
2023/05/11 09:10:29;;;;;;;1.63;1.53;;;;;;;20.39;58.50;97174.41;4939240;29;20216;-32
2023/05/11 09:12:56;;;;;;;1.40;1.30;;;;;;;20.43;58.00;97181.38;4955004;28;20292;-32
2023/05/11 09:15:23;;;;;;;1.50;1.37;;;;;;;20.44;57.91;97185.63;4955344;28;20230;-31
2023/05/11 09:17:49;;;;;;;1.40;1.30;;;;;;;20.46;58.12;97173.78;4954961;28;20207;-32
2023/05/11 09:20:17;;;;;;;1.57;1.47;;;;;;;20.48;58.04;97180.66;4955089;28;20211;-32
2023/05/11 09:22:45;;;;;;;1.60;1.50;;;;;;;20.50;57.99;97185.81;4938259;29;20220;-31
2023/05/11 09:25:12;;;;;;;1.40;1.30;;;;;;;20.50;58.05;97173.91;4955051;28;20593;-31
2023/05/11 09:27:45;;;;;;;1.67;1.57;;;;;;;20.51;58.03;97182.41;4955386;28;20204;-32
2023/05/11 09:30:13;;;;;;;1.30;1.30;;;;;;;20.50;57.96;97181.59;4955693;28;20208;-32
2023/05/11 09:32:48;;;;;;;1.50;1.40;;;;;;;20.51;57.93;97182.41;4954735;28;20393;-32
2023/05/11 09:35:28;;;;;;;1.33;1.23;;;;;;;20.50;57.95;97178.16;4954278;28;20228;-30
2023/05/11 09:38:08;;;;;;;1.50;1.40;;;;;;;20.49;57.87;97173.88;4954549;28;20196;-32
2023/05/11 09:40:39;;;;;;;1.50;1.40;;;;;;;20.45;58.24;97174.59;4954619;28;20243;-31
2023/05/11 09:43:21;;;;;;;1.40;1.30;;;;;;;20.47;58.05;97181.50;4953300;29;20216;-31
2023/05/11 09:45:49;;;;;;;1.40;1.30;;;;;;;20.46;58.05;97179.75;4953682;28;20311;-32
2023/05/11 09:48:15;;;;;;;1.40;1.30;;;;;;;20.47;58.06;97188.28;4954427;28;20730;-32
2023/05/11 09:50:42;;;;;;;1.40;1.30;;;;;;;20.44;58.11;97183.09;4954342;28;20196;-30
2023/05/11 09:53:09;;;;;;;1.47;1.30;;;;;;;20.45;58.01;97185.69;4953883;28;20683;-31
2023/05/11 09:55:35;;;;;;;1.33;1.30;;;;;;;20.46;58.13;97181.44;4952472;29;20224;-31
2023/05/11 09:58:03;;;;;;;1.30;1.20;;;;;;;20.43;58.15;97184.75;4954040;28;20211;-31
2023/05/11 10:00:30;;;;;;;1.50;1.40;;;;;;;20.44;58.20;97183.09;4954508;28;20204;-32
2023/05/11 10:03:08;;;;;;;1.20;1.20;;;;;;;20.44;58.25;97183.97;4953910;28;20226;-31
2023/05/11 10:05:35;;;;;;;1.30;1.20;;;;;;;20.44;58.16;97168.66;4953893;28;20278;-31
2023/05/11 10:08:03;;;;;;;1.30;1.20;;;;;;;20.44;58.06;97175.44;4954268;28;20196;-32
2023/05/11 10:10:30;;;;;;;1.70;1.40;;;;;;;20.43;58.08;97178.81;4954288;28;20567;-32
2023/05/11 10:12:59;;;;;;;1.40;1.30;;;;;;;20.43;58.11;97182.22;4952230;28;20208;-31
2023/05/11 10:15:29;;;;;;;1.40;1.30;;;;;;;20.44;58.08;97180.53;4948497;28;20319;-31
2023/05/11 10:17:57;;;;;;;1.40;1.30;;;;;;;20.46;58.04;97176.34;4957395;28;20204;-31
2023/05/11 10:20:24;;;;;;;1.30;1.20;;;;;;;20.47;57.96;97189.16;4956886;28;20203;-31
2023/05/11 10:22:52;;;;;;;1.53;1.43;;;;;;;20.49;57.97;97173.88;4953129;28;20263;-32
2023/05/11 10:25:23;;;;;;;1.20;1.20;;;;;;;20.51;57.81;97173.09;4958718;28;20228;-32
2023/05/11 10:27:50;;;;;;;1.30;1.20;;;;;;;20.29;57.93;97134.16;4947858;28;20204;-31
2023/05/11 10:30:17;;;;;;;1.27;1.20;;;;;;;20.52;57.94;97168.84;4957584;28;20645;-32
2023/05/11 10:32:46;;;;;;;1.20;1.20;;;;;;;20.52;57.99;97166.31;4957151;28;20200;-30
2023/05/11 10:35:13;;;;;;;1.40;1.30;;;;;;;20.51;57.87;97173.09;4949017;29;20224;-32
2023/05/11 10:37:41;;;;;;;1.50;1.40;;;;;;;20.50;58.09;97167.94;4957280;28;20235;-31
2023/05/11 10:40:08;;;;;;;1.40;1.30;;;;;;;20.50;58.02;97189.25;4956601;28;20224;-32
2023/05/11 10:42:51;;;;;;;1.40;1.30;;;;;;;20.49;57.92;97168.78;4951756;29;20223;-32
2023/05/11 10:45:44;;;;;;;1.53;1.43;;;;;;;20.49;57.78;97168.78;4950656;28;20271;-32
2023/05/11 10:48:51;;;;;;;1.27;1.17;;;;;;;20.48;57.97;97172.13;4955370;28;20610;-31
2023/05/11 10:51:59;;;;;;;1.40;1.30;;;;;;;20.47;57.96;97167.84;4950714;28;20212;-31
2023/05/11 10:54:38;;;;;;;1.37;1.27;;;;;;;20.46;57.96;97161.88;4940658;28;20238;-31
2023/05/11 10:57:13;;;;;;;1.50;1.40;;;;;;;20.46;57.95;97166.97;4930343;29;20201;-31
2023/05/11 10:59:42;;;;;;;1.27;1.20;;;;;;;20.45;58.17;97165.25;4952297;28;20207;-32
2023/05/11 11:02:09;;;;;;;1.23;1.20;;;;;;;20.44;58.55;97162.66;4955104;28;20231;-32
2023/05/11 11:04:46;;;;;;;1.43;1.30;;;;;;;20.41;57.89;97157.47;4955438;28;20228;-32
2023/05/11 11:07:17;;;;;;;1.40;1.30;;;;;;;20.28;58.18;97137.56;4948003;28;20207;-32
2023/05/11 11:09:55;;;;;;;1.40;1.30;;;;;;;20.44;57.97;97166.09;4953573;28;20223;-31
2023/05/11 11:12:22;;;;;;;1.23;1.23;;;;;;;20.45;57.91;97169.50;4950524;28;20200;-32
2023/05/11 11:15:07;;;;;;;2.40;1.43;;;;;;;20.43;58.05;97171.16;4953420;28;20216;-31
2023/05/11 11:17:34;;;;;;;1.50;1.40;;;;;;;20.42;58.08;97171.97;4956904;28;20196;-31
2023/05/11 11:20:07;;;;;;;1.43;1.30;;;;;;;20.43;58.21;97171.16;4956944;28;20658;-31
2023/05/11 11:22:34;;;;;;;1.37;1.27;;;;;;;20.44;58.35;97166.09;4957114;28;20204;-32
2023/05/11 11:25:01;;;;;;;1.20;1.20;;;;;;;20.46;58.00;97168.69;4951510;28;20224;-31
2023/05/11 11:27:40;;;;;;;1.60;1.30;;;;;;;20.50;58.03;97175.59;4956195;28;20206;-32
2023/05/11 11:30:19;;;;;;;1.37;1.27;;;;;;;20.51;57.93;97164.56;4956968;28;20781;-30
2023/05/11 11:32:47;;;;;;;1.43;1.33;;;;;;;20.50;58.10;97163.72;4956588;28;20585;-30
2023/05/11 11:35:40;;;;;;;1.37;1.27;;;;;;;20.49;57.81;97164.50;4951919;29;20691;-31
2023/05/11 11:38:08;;;;;;;1.73;1.40;;;;;;;20.50;57.78;97168.81;4954240;28;20547;-31
2023/05/11 11:40:35;;;;;;;3.20;1.20;;;;;;;20.45;57.84;97161.84;4956862;28;20236;-32